Time;durP1;ratioP1;P1;durP2;ratioP2;P2;SDS_P1;SDS_P2;PMS_P1;PMS_P2;Temp;Humidity;BMP_temperature;BMP_pressure;BME280_temperature;BME280_humidity;BME280_pressure;Samples;Min_cycle;Max_cycle;Signal;HPM_P1;HPM_P2
2022/05/27 00:00:42;;;;;;;5.20;3.30;;;13.70;99.90;;;;;;4880653;29;20048;-83
2022/05/27 00:03:09;;;;;;;8.93;4.38;;;13.70;99.90;;;;;;4880539;29;20071;-84
2022/05/27 00:05:35;;;;;;;;;;;13.70;99.90;;;;;;4876256;29;20041;-83
2022/05/27 00:08:00;;;;;;;5.60;3.88;;;13.70;99.90;;;;;;4895495;29;19938;-82
2022/05/27 00:10:26;;;;;;;3.67;2.73;;;13.70;99.90;;;;;;4864373;29;20060;-82
2022/05/27 00:12:53;;;;;;;7.20;2.95;;;13.60;99.90;;;;;;4896433;29;20044;-83
2022/05/27 00:15:20;;;;;;;8.82;2.53;;;13.60;99.90;;;;;;4880211;29;20052;-83
2022/05/27 00:17:46;;;;;;;4.38;2.55;;;13.60;99.90;;;;;;4890202;29;20052;-84
2022/05/27 00:20:12;;;;;;;;;;;13.60;99.90;;;;;;4879371;29;20058;-83
2022/05/27 00:22:38;;;;;;;6.60;3.13;;;13.60;99.90;;;;;;4895872;29;19923;-83
2022/05/27 00:25:04;;;;;;;8.67;3.20;;;13.60;99.90;;;;;;4879069;29;20053;-86
2022/05/27 00:27:30;;;;;;;;;;;13.60;99.90;;;;;;4895575;29;20526;-83
2022/05/27 00:29:55;;;;;;;7.13;2.88;;;13.50;99.90;;;;;;4864363;29;19923;-83
2022/05/27 00:32:21;;;;;;;3.07;2.40;;;13.50;99.90;;;;;;4880413;29;20460;-83
2022/05/27 00:34:47;;;;;;;5.47;2.63;;;13.60;99.90;;;;;;4880049;29;20052;-84
2022/05/27 00:37:14;;;;;;;4.70;3.33;;;13.50;99.90;;;;;;4878038;29;20072;-86
2022/05/27 00:39:40;;;;;;;;;;;13.50;99.90;;;;;;4865015;29;20048;-83
2022/05/27 00:42:06;;;;;;;3.63;2.38;;;13.40;99.90;;;;;;4879337;29;19927;-83
2022/05/27 00:44:31;;;;;;;5.60;3.33;;;13.40;99.90;;;;;;4896341;29;20045;-83
2022/05/27 00:47:06;;;;;;;4.00;2.93;;;13.40;99.90;;;;;;4895429;29;20092;-83
2022/05/27 00:49:33;;;;;;;6.63;2.55;;;13.30;99.90;;;;;;4875035;29;20117;-87
2022/05/27 00:52:04;;;;;;;;;;;13.40;99.90;;;;;;4896241;29;20045;-83
2022/05/27 00:54:31;;;;;;;6.80;2.65;;;13.30;99.90;;;;;;4880326;29;20416;-83
2022/05/27 00:57:03;;;;;;;3.95;2.45;;;13.30;99.90;;;;;;4894491;29;20121;-83
2022/05/27 00:59:41;;;;;;;3.83;2.20;;;13.30;99.90;;;;;;4877557;29;20544;-83
2022/05/27 01:02:07;;;;;;;6.53;3.03;;;13.30;99.90;;;;;;4895466;29;20045;-83
2022/05/27 01:04:35;;;;;;;6.90;2.95;;;13.30;99.90;;;;;;4895318;29;20083;-83
2022/05/27 01:07:00;;;;;;;4.93;2.13;;;13.30;99.90;;;;;;4879281;29;20056;-83
2022/05/27 01:09:29;;;;;;;7.00;3.30;;;13.30;99.90;;;;;;4895530;29;20420;-83
2022/05/27 01:12:22;;;;;;;11.95;4.30;;;13.20;99.90;;;;;;4878911;29;20076;-83
2022/05/27 01:15:12;;;;;;;4.47;3.10;;;13.20;99.90;;;;;;4861584;29;20064;-89
2022/05/27 01:17:58;;;;;;;4.35;3.17;;;13.20;99.90;;;;;;4892587;29;20568;-83
2022/05/27 01:21:06;;;;;;;2.65;1.90;;;13.20;99.90;;;;;;4849230;29;20053;-83
2022/05/27 01:23:51;;;;;;;2.40;2.20;;;13.10;99.90;;;;;;4814048;29;20440;-83
2022/05/27 01:26:22;;;;;;;3.35;2.10;;;13.10;99.90;;;;;;4804717;29;20111;-83
2022/05/27 01:28:53;;;;;;;4.72;2.47;;;13.10;99.90;;;;;;4853161;29;20057;-83
2022/05/27 01:31:19;;;;;;;4.32;2.55;;;13.10;99.90;;;;;;4877365;29;20040;-83
2022/05/27 01:34:03;;;;;;;3.73;2.23;;;13.00;99.90;;;;;;4879640;29;20052;-83
2022/05/27 01:36:34;;;;;;;5.22;2.70;;;13.00;99.90;;;;;;4879051;29;20041;-83
2022/05/27 01:39:06;;;;;;;7.95;3.28;;;13.00;99.90;;;;;;4875611;29;20097;-83
2022/05/27 01:41:48;;;;;;;7.70;3.30;;;13.00;99.90;;;;;;4879157;29;20049;-83
2022/05/27 01:44:55;;;;;;;5.28;2.50;;;13.00;99.90;;;;;;4878994;29;20048;-83
2022/05/27 01:48:03;;;;;;;3.25;2.17;;;12.90;99.90;;;;;;4879339;29;20056;-83
2022/05/27 01:50:43;;;;;;;6.63;2.50;;;12.90;99.90;;;;;;4878557;29;20049;-83
2022/05/27 01:53:11;;;;;;;5.40;3.08;;;12.90;99.90;;;;;;4894464;29;20493;-83
2022/05/27 01:56:19;;;;;;;5.43;3.13;;;12.90;99.90;;;;;;4894787;29;20044;-83
2022/05/27 01:59:02;;;;;;;7.40;3.57;;;12.90;99.90;;;;;;4888823;29;20485;-83
2022/05/27 02:01:37;;;;;;;4.22;2.40;;;12.90;99.90;;;;;;4877862;29;20518;-83
2022/05/27 02:04:28;;;;;;;5.05;2.75;;;12.90;99.90;;;;;;4885749;29;20049;-83
2022/05/27 02:07:04;;;;;;;4.47;2.70;;;12.90;99.90;;;;;;4879024;29;20049;-88
2022/05/27 02:09:47;;;;;;;6.90;2.67;;;12.80;99.90;;;;;;4875622;29;20099;-84
2022/05/27 02:12:36;;;;;;;4.72;3.05;;;12.80;99.90;;;;;;4878190;29;20465;-83
2022/05/27 02:15:11;;;;;;;3.95;3.42;;;12.80;99.90;;;;;;4874569;29;20049;-88
2022/05/27 02:17:42;;;;;;;5.22;2.35;;;12.80;99.90;;;;;;4872986;29;20189;-83
2022/05/27 02:20:16;;;;;;;4.68;2.35;;;12.80;99.90;;;;;;4875370;29;20052;-83
2022/05/27 02:22:50;;;;;;;7.50;2.75;;;12.70;99.90;;;;;;4850185;29;20049;-84
2022/05/27 02:25:37;;;;;;;8.27;2.95;;;12.70;99.90;;;;;;4895356;29;20155;-83
2022/05/27 02:28:23;;;;;;;9.80;3.40;;;12.70;99.90;;;;;;4895575;29;20568;-83
2022/05/27 02:30:55;;;;;;;3.28;2.78;;;12.60;99.90;;;;;;4881602;29;20052;-83
2022/05/27 02:36:39;;;;;;;4.13;2.50;;;12.50;99.90;;;;;;4882095;29;20088;-83
2022/05/27 02:39:07;;;;;;;11.07;2.95;;;12.50;99.90;;;;;;4879022;29;20044;-83
2022/05/27 02:41:58;;;;;;;8.40;4.10;;;12.50;99.90;;;;;;4866441;29;20055;-83
2022/05/27 02:44:27;;;;;;;8.65;2.95;;;12.40;99.90;;;;;;4881345;29;20044;-83
2022/05/27 02:47:07;;;;;;;5.13;3.15;;;12.40;99.90;;;;;;4881066;29;20468;-83
2022/05/27 02:49:52;;;;;;;3.05;2.72;;;12.30;99.90;;;;;;4881237;29;20049;-83
2022/05/27 02:52:42;;;;;;;7.72;3.28;;;12.30;99.90;;;;;;4865606;29;20044;-83
2022/05/27 02:55:19;;;;;;;2.95;2.30;;;12.30;99.90;;;;;;4879828;29;20104;-83
2022/05/27 02:57:51;;;;;;;5.28;3.55;;;12.20;99.90;;;;;;4870237;29;20045;-83
2022/05/27 03:00:21;;;;;;;9.30;3.85;;;12.20;99.90;;;;;;4878256;29;20135;-84
2022/05/27 03:02:47;;;;;;;7.22;3.13;;;12.20;99.90;;;;;;4898603;29;20377;-83
2022/05/27 03:05:16;;;;;;;3.92;2.30;;;12.10;99.90;;;;;;4897108;29;20062;-83
2022/05/27 03:08:04;;;;;;;5.85;2.33;;;12.20;99.90;;;;;;4892235;29;20044;-83
2022/05/27 03:10:48;;;;;;;7.07;4.38;;;12.20;99.90;;;;;;4897755;29;20109;-83
2022/05/27 03:13:45;;;;;;;4.70;3.42;;;12.10;99.90;;;;;;4879609;29;20131;-83
2022/05/27 03:16:35;;;;;;;5.40;3.17;;;12.10;99.90;;;;;;4859329;29;20049;-83
2022/05/27 03:19:12;;;;;;;2.95;2.38;;;12.10;99.90;;;;;;4881616;29;20063;-83
2022/05/27 03:22:03;;;;;;;10.82;3.58;;;12.00;99.90;;;;;;4880910;29;20060;-84
2022/05/27 03:24:39;;;;;;;5.60;2.95;;;12.00;99.90;;;;;;4865480;29;20056;-85
2022/05/27 03:27:06;;;;;;;4.50;2.63;;;12.00;99.90;;;;;;4895264;29;20041;-88
2022/05/27 03:30:04;;;;;;;5.78;2.33;;;12.00;99.90;;;;;;4880957;29;21046;-86
2022/05/27 03:32:55;;;;;;;8.18;2.88;;;12.00;99.90;;;;;;4895732;29;20508;-83
2022/05/27 03:35:39;;;;;;;10.10;3.75;;;11.90;99.90;;;;;;4880319;29;20060;-83
2022/05/27 03:38:47;;;;;;;7.88;3.67;;;11.90;99.90;;;;;;4892339;29;20504;-83
2022/05/27 03:42:02;;;;;;;5.07;2.95;;;11.90;99.90;;;;;;4878104;29;20197;-84
2022/05/27 03:44:29;;;;;;;6.22;2.90;;;11.90;99.90;;;;;;4883338;29;20064;-83
2022/05/27 03:46:57;;;;;;;4.30;2.17;;;11.80;99.90;;;;;;4880461;29;20063;-83
2022/05/27 03:49:23;;;;;;;6.20;2.97;;;11.80;99.90;;;;;;4880640;29;20048;-83
2022/05/27 03:52:05;;;;;;;13.18;3.83;;;11.80;99.90;;;;;;4895793;29;20056;-84
2022/05/27 03:54:31;;;;;;;5.30;2.42;;;11.80;99.90;;;;;;4896823;29;20210;-85
2022/05/27 03:56:57;;;;;;;7.75;3.55;;;11.80;99.90;;;;;;4880122;29;20048;-83
2022/05/27 03:59:24;;;;;;;5.80;3.03;;;11.90;99.90;;;;;;4880144;29;20099;-83
2022/05/27 04:01:52;;;;;;;5.35;2.47;;;11.80;99.90;;;;;;4869605;29;20128;-83
2022/05/27 04:04:21;;;;;;;8.02;3.33;;;11.80;99.90;;;;;;4879880;29;20192;-84
2022/05/27 04:06:47;;;;;;;11.00;2.95;;;11.80;99.90;;;;;;4896232;29;20510;-83
2022/05/27 04:09:15;;;;;;;9.07;3.00;;;11.80;99.90;;;;;;4876710;29;20053;-85
2022/05/27 04:11:41;;;;;;;6.57;2.58;;;11.90;99.90;;;;;;4878220;29;20518;-85
2022/05/27 04:14:06;;;;;;;6.50;2.22;;;11.80;99.90;;;;;;4890392;29;20045;-83
2022/05/27 04:16:32;;;;;;;6.93;3.70;;;11.90;99.90;;;;;;4877182;29;20053;-83
2022/05/27 04:18:58;;;;;;;4.45;2.33;;;11.90;99.90;;;;;;4877455;29;20445;-83
2022/05/27 04:21:24;;;;;;;2.87;2.27;;;11.90;99.90;;;;;;4877707;29;20128;-83
2022/05/27 04:23:51;;;;;;;4.80;2.60;;;11.90;99.90;;;;;;4845273;29;20049;-83
2022/05/27 04:26:17;;;;;;;3.72;2.83;;;11.90;99.90;;;;;;4875639;29;20219;-84
2022/05/27 04:28:43;;;;;;;5.15;2.60;;;11.80;99.90;;;;;;4846727;29;20085;-83
2022/05/27 04:31:09;;;;;;;5.78;2.83;;;11.90;99.90;;;;;;4860782;29;20508;-83
2022/05/27 04:33:35;;;;;;;4.07;2.83;;;11.90;99.90;;;;;;4876704;29;20045;-85
2022/05/27 04:36:01;;;;;;;6.63;3.10;;;11.90;99.90;;;;;;4888867;29;20052;-87
2022/05/27 04:38:28;;;;;;;9.93;2.85;;;11.90;99.90;;;;;;4875859;29;20041;-83
2022/05/27 04:40:53;;;;;;;4.00;2.40;;;11.90;99.90;;;;;;4876881;29;20053;-83
2022/05/27 04:43:20;;;;;;;7.38;2.90;;;11.90;99.90;;;;;;4874686;29;20047;-84
2022/05/27 04:45:46;;;;;;;5.30;2.53;;;12.00;99.90;;;;;;4892196;29;20041;-84
2022/05/27 04:48:13;;;;;;;5.90;3.17;;;12.00;99.90;;;;;;4876054;29;20045;-83
2022/05/27 04:50:39;;;;;;;6.82;3.28;;;12.00;99.90;;;;;;4875784;29;20131;-83
2022/05/27 04:53:06;;;;;;;7.15;2.60;;;12.00;99.90;;;;;;4860721;29;20053;-83
2022/05/27 04:55:33;;;;;;;;;;;12.00;99.90;;;;;;4876482;29;20056;-84
2022/05/27 04:57:59;;;;;;;7.32;4.38;;;12.00;99.90;;;;;;4891224;29;19924;-83
2022/05/27 05:00:36;;;;;;;;;;;12.00;99.90;;;;;;4876856;29;20049;-83
2022/05/27 05:03:02;;;;;;;7.18;2.78;;;12.00;99.90;;;;;;4870459;29;19932;-83
2022/05/27 05:05:30;;;;;;;4.70;2.45;;;12.00;99.90;;;;;;4874225;29;20544;-83
2022/05/27 05:07:58;;;;;;;7.53;2.78;;;12.00;99.90;;;;;;4878776;29;20155;-83
2022/05/27 05:10:24;;;;;;;11.38;3.58;;;12.00;99.90;;;;;;4879202;29;20063;-83
2022/05/27 05:12:51;;;;;;;12.63;3.53;;;12.00;99.90;;;;;;4895501;29;20063;-83
2022/05/27 05:15:19;;;;;;;6.75;2.20;;;12.00;99.90;;;;;;4895372;29;20052;-83
2022/05/27 05:17:46;;;;;;;7.97;2.45;;;12.00;99.90;;;;;;4877617;29;20060;-84
2022/05/27 05:20:15;;;;;;;3.95;2.85;;;12.10;99.90;;;;;;4896272;29;20160;-83
2022/05/27 05:22:41;;;;;;;5.00;2.72;;;12.10;99.90;;;;;;4895384;29;20056;-83
2022/05/27 05:25:08;;;;;;;2.00;1.83;;;12.10;99.90;;;;;;4878273;29;20072;-83
2022/05/27 05:27:36;;;;;;;8.35;3.28;;;12.10;99.90;;;;;;4876602;29;20140;-83
2022/05/27 05:30:03;;;;;;;8.30;2.88;;;12.10;99.90;;;;;;4864400;29;20045;-83
2022/05/27 05:32:28;;;;;;;7.53;2.10;;;12.10;99.90;;;;;;4895225;29;20506;-83
2022/05/27 05:34:54;;;;;;;7.37;2.50;;;12.20;99.90;;;;;;4878652;29;20057;-83
2022/05/27 05:37:20;;;;;;;3.58;2.13;;;12.30;99.90;;;;;;4881271;29;20044;-84
2022/05/27 05:39:46;;;;;;;9.50;2.33;;;12.40;99.90;;;;;;4895811;29;20048;-83
2022/05/27 05:42:12;;;;;;;2.38;1.88;;;12.50;99.90;;;;;;4895956;29;20514;-83
2022/05/27 05:44:38;;;;;;;2.88;1.85;;;12.60;99.90;;;;;;4877428;29;20133;-83
2022/05/27 05:47:04;;;;;;;4.63;2.58;;;12.60;99.90;;;;;;4877026;29;20132;-85
2022/05/27 05:49:29;;;;;;;2.87;2.10;;;12.60;99.90;;;;;;4876141;29;20045;-84
2022/05/27 05:51:58;;;;;;;7.43;3.20;;;12.50;99.90;;;;;;4879317;29;20288;-83
2022/05/27 05:54:24;;;;;;;6.80;3.13;;;12.50;99.90;;;;;;4895768;29;20053;-85
2022/05/27 05:56:50;;;;;;;;;;;12.40;99.90;;;;;;4877450;29;21663;-84
2022/05/27 05:59:17;;;;;;;7.07;2.70;;;12.30;99.90;;;;;;4893548;29;19923;-84
2022/05/27 06:01:43;;;;;;;4.85;2.55;;;12.40;99.90;;;;;;4897847;29;20479;-82
2022/05/27 06:04:10;;;;;;;6.63;2.38;;;12.50;99.90;;;;;;4898262;29;20480;-83
2022/05/27 06:06:37;;;;;;;5.85;2.45;;;12.50;99.90;;;;;;4880703;29;20055;-83
2022/05/27 06:09:04;;;;;;;3.75;2.08;;;12.50;99.90;;;;;;4899283;29;20507;-83
2022/05/27 06:11:29;;;;;;;;;;;12.60;99.90;;;;;;4878992;29;20476;-84
2022/05/27 06:13:55;;;;;;;5.25;2.30;;;12.70;99.90;;;;;;4883398;29;19974;-83
2022/05/27 06:16:21;;;;;;;3.67;2.17;;;12.80;99.90;;;;;;4884091;29;20060;-83
2022/05/27 06:18:47;;;;;;;5.03;2.95;;;13.00;99.90;;;;;;4898059;29;20040;-84
2022/05/27 06:21:13;;;;;;;8.55;3.40;;;13.30;99.90;;;;;;4844117;29;20053;-82
2022/05/27 06:23:39;;;;;;;6.03;5.00;;;13.60;99.90;;;;;;4899385;29;20131;-84
2022/05/27 06:26:08;;;;;;;3.00;2.40;;;14.00;99.90;;;;;;4884206;29;20171;-85
2022/05/27 06:36:48;;;;;;;3.13;2.00;;;14.50;99.90;;;;;;4883070;29;20125;-84
2022/05/27 06:39:14;;;;;;;4.90;2.58;;;14.50;99.90;;;;;;4858746;29;20057;-83
2022/05/27 06:41:40;;;;;;;3.47;2.17;;;14.40;99.90;;;;;;4898464;29;20125;-84
2022/05/27 06:44:07;;;;;;;6.05;2.53;;;14.40;99.90;;;;;;4858926;29;20049;-83
2022/05/27 06:46:33;;;;;;;3.97;2.67;;;14.50;99.90;;;;;;4891453;29;20116;-88
2022/05/27 06:48:59;;;;;;;2.45;1.90;;;14.40;99.90;;;;;;4883134;29;20060;-83
2022/05/27 06:51:25;;;;;;;4.35;2.05;;;14.50;99.90;;;;;;4883329;29;20048;-85
2022/05/27 06:53:51;;;;;;;6.40;2.60;;;14.60;99.90;;;;;;4899680;29;20053;-84
2022/05/27 06:56:18;;;;;;;7.72;2.40;;;14.60;99.90;;;;;;4874135;29;20484;-83
2022/05/27 06:58:44;;;;;;;3.67;1.73;;;14.50;99.90;;;;;;4897832;29;20072;-84
2022/05/27 07:01:11;;;;;;;5.40;2.50;;;14.50;99.90;;;;;;4881083;29;20056;-84
2022/05/27 07:03:37;;;;;;;7.28;2.50;;;14.50;99.90;;;;;;4879920;29;20061;-84
2022/05/27 07:06:08;;;;;;;7.35;2.22;;;14.40;99.90;;;;;;4880920;29;20045;-84
2022/05/27 07:08:35;;;;;;;4.85;2.58;;;14.40;99.90;;;;;;4880231;29;20056;-88
2022/05/27 07:11:02;;;;;;;9.02;2.95;;;14.40;99.90;;;;;;4896767;29;20057;-83
2022/05/27 07:13:27;;;;;;;4.57;2.58;;;14.30;99.90;;;;;;4895061;29;20136;-83
2022/05/27 07:15:53;;;;;;;3.77;1.40;;;14.30;99.90;;;;;;4881411;29;20131;-83
2022/05/27 07:18:19;;;;;;;4.90;1.95;;;14.20;99.90;;;;;;4881249;29;20508;-82
2022/05/27 07:20:48;;;;;;;1.83;1.60;;;14.30;99.90;;;;;;4881024;29;20052;-84
2022/05/27 07:23:14;;;;;;;7.85;2.40;;;14.90;99.90;;;;;;4867380;29;20120;-84
2022/05/27 07:25:40;;;;;;;5.07;2.97;;;14.50;99.90;;;;;;4865174;29;20568;-85
2022/05/27 07:28:07;;;;;;;2.38;1.98;;;14.40;99.90;;;;;;4861651;29;20053;-83
2022/05/27 07:30:34;;;;;;;7.93;1.92;;;14.40;99.90;;;;;;4893854;29;20095;-85
2022/05/27 07:32:59;;;;;;;;;;;14.40;99.90;;;;;;4881075;29;20071;-83
2022/05/27 07:35:25;;;;;;;4.22;2.20;;;14.40;99.90;;;;;;4877001;29;20294;-83
2022/05/27 07:37:51;;;;;;;2.08;1.67;;;14.40;99.90;;;;;;4855620;29;20567;-83
2022/05/27 07:40:17;;;;;;;7.17;1.80;;;14.40;99.90;;;;;;4880896;29;20044;-84
2022/05/27 07:42:43;;;;;;;4.37;2.03;;;14.40;99.90;;;;;;4880606;29;20289;-83
2022/05/27 07:45:12;;;;;;;7.35;2.53;;;14.50;99.90;;;;;;4880418;29;20067;-83
2022/05/27 07:47:38;;;;;;;9.77;2.85;;;14.60;99.90;;;;;;4878172;29;20052;-82
2022/05/27 07:50:05;;;;;;;6.55;2.80;;;14.80;99.90;;;;;;4863930;29;20507;-82
2022/05/27 07:52:32;;;;;;;2.97;2.20;;;14.90;99.90;;;;;;4896313;29;20048;-83
2022/05/27 07:54:58;;;;;;;3.33;2.15;;;15.10;99.90;;;;;;4879472;29;20064;-82
2022/05/27 07:57:25;;;;;;;6.13;2.92;;;15.20;99.90;;;;;;4879705;29;20051;-82
2022/05/27 07:59:54;;;;;;;3.13;2.20;;;15.30;99.90;;;;;;4895095;29;20052;-83
2022/05/27 08:02:23;;;;;;;5.70;2.30;;;15.50;99.90;;;;;;4880711;29;20047;-83
2022/05/27 08:04:49;;;;;;;5.32;2.38;;;15.40;99.90;;;;;;4863509;29;20090;-83
2022/05/27 08:07:18;;;;;;;4.55;2.08;;;15.30;99.90;;;;;;4880182;29;20060;-83
2022/05/27 08:09:44;;;;;;;3.45;2.22;;;15.40;99.90;;;;;;4895750;29;20124;-86
2022/05/27 08:12:10;;;;;;;5.35;3.20;;;15.40;99.90;;;;;;4864349;29;20040;-83
2022/05/27 08:14:36;;;;;;;4.50;2.05;;;15.30;99.90;;;;;;4879030;29;20107;-86
2022/05/27 08:17:02;;;;;;;5.40;2.87;;;15.10;99.90;;;;;;4876268;29;20143;-85
2022/05/27 08:19:28;;;;;;;10.43;2.92;;;14.90;99.90;;;;;;4879897;29;20312;-83
2022/05/27 08:21:54;;;;;;;3.60;2.60;;;14.70;99.90;;;;;;4880499;29;20041;-84
2022/05/27 08:24:22;;;;;;;5.90;1.97;;;14.60;99.90;;;;;;4880669;29;20293;-91
2022/05/27 08:26:48;;;;;;;5.00;2.42;;;14.80;99.90;;;;;;4873549;29;20032;-84
2022/05/27 08:29:14;;;;;;;4.30;1.77;;;15.00;99.90;;;;;;4879774;29;20115;-82
2022/05/27 08:31:40;;;;;;;2.22;1.52;;;15.30;99.90;;;;;;4875223;29;20053;-86
2022/05/27 08:39:39;;;;;;;4.30;2.20;;;15.20;99.90;;;;;;4875939;29;20064;-85
2022/05/27 08:42:48;;;;;;;2.38;1.55;;;15.10;99.90;;;;;;4895440;29;20045;-87
2022/05/27 08:45:31;;;;;;;4.60;1.85;;;15.10;99.90;;;;;;4861903;29;20077;-85
2022/05/27 08:48:04;;;;;;;7.90;3.08;;;15.20;99.90;;;;;;4880953;29;20057;-85
2022/05/27 08:50:42;;;;;;;7.95;1.88;;;15.40;99.90;;;;;;4882233;29;20053;-85
2022/05/27 08:53:31;;;;;;;2.88;1.90;;;15.60;99.90;;;;;;4876356;29;20083;-85
2022/05/27 09:02:22;;;;;;;2.38;1.80;;;15.80;99.90;;;;;;4895395;29;20063;-88
2022/05/27 09:04:58;;;;;;;5.25;1.85;;;15.90;99.90;;;;;;4838639;29;20190;-85
2022/05/27 09:07:41;;;;;;;2.58;2.20;;;16.20;99.90;;;;;;4874128;29;20040;-85
2022/05/27 09:10:14;;;;;;;3.30;1.90;;;16.10;99.90;;;;;;4872989;29;20480;-88
2022/05/27 09:13:14;;;;;;;1.63;1.52;;;16.00;99.90;;;;;;4881197;29;20063;-84
2022/05/27 09:15:58;;;;;;;1.85;1.63;;;15.90;99.90;;;;;;4881041;29;20587;-85
2022/05/27 09:18:33;;;;;;;3.60;2.05;;;15.90;99.90;;;;;;4881886;29;20053;-84
2022/05/27 09:21:39;;;;;;;7.20;1.50;;;15.90;99.90;;;;;;4880741;29;20052;-85
2022/05/27 09:24:38;;;;;;;6.68;2.58;;;15.90;99.90;;;;;;4873460;29;20065;-85
2022/05/27 09:27:09;;;;;;;3.05;2.00;;;15.90;99.90;;;;;;4865228;29;20052;-85
2022/05/27 09:29:55;;;;;;;1.55;1.45;;;15.90;99.90;;;;;;4866164;29;20563;-85
2022/05/27 09:32:50;;;;;;;3.00;1.63;;;16.10;99.90;;;;;;4866124;29;20048;-85
2022/05/27 09:35:25;;;;;;;2.78;1.40;;;16.00;99.90;;;;;;4880952;29;20060;-86
2022/05/27 09:37:54;;;;;;;1.70;1.60;;;16.00;99.90;;;;;;4884279;29;20052;-85
2022/05/27 09:40:33;;;;;;;4.93;1.50;;;16.10;99.90;;;;;;4902343;29;20052;-84
2022/05/27 09:43:04;;;;;;;4.03;1.85;;;16.10;99.90;;;;;;4860403;29;20053;-85
2022/05/27 09:45:30;;;;;;;3.88;1.67;;;16.20;99.90;;;;;;4866489;29;20482;-85
2022/05/27 09:48:00;;;;;;;3.58;1.27;;;16.30;99.90;;;;;;4865925;29;20089;-92
2022/05/27 09:50:34;;;;;;;4.13;1.65;;;16.50;99.90;;;;;;4835971;29;20049;-85
2022/05/27 09:53:01;;;;;;;4.68;1.55;;;16.60;99.90;;;;;;4866068;29;20480;-85
2022/05/27 09:55:52;;;;;;;5.57;1.10;;;16.60;99.90;;;;;;4866168;29;20401;-86
2022/05/27 09:58:27;;;;;;;3.42;1.60;;;16.70;99.90;;;;;;4866263;29;20055;-86
2022/05/27 10:00:53;;;;;;;7.97;2.42;;;16.70;99.90;;;;;;4850906;29;20096;-85
2022/05/27 10:03:36;;;;;;;2.65;1.70;;;16.60;99.90;;;;;;4865555;29;20049;-85
2022/05/27 10:06:19;;;;;;;4.00;1.60;;;16.50;99.90;;;;;;4865473;29;20052;-86
2022/05/27 10:08:53;;;;;;;4.95;1.80;;;16.40;99.90;;;;;;4866753;29;20061;-85
2022/05/27 10:11:23;;;;;;;4.18;2.25;;;16.50;99.90;;;;;;4865511;29;20077;-86
2022/05/27 10:14:10;;;;;;;3.95;1.45;;;16.40;99.90;;;;;;4866136;29;20427;-85
2022/05/27 10:16:38;;;;;;;3.65;1.80;;;16.30;99.90;;;;;;4866443;29;20053;-85
2022/05/27 10:19:14;;;;;;;3.40;1.52;;;16.30;99.90;;;;;;4865740;29;20053;-87
2022/05/27 10:21:54;;;;;;;6.87;2.10;;;16.50;99.90;;;;;;4866021;29;20053;-86
2022/05/27 10:24:33;;;;;;;2.17;1.02;;;16.60;99.90;;;;;;4865599;29;20308;-86
2022/05/27 10:27:17;;;;;;;4.38;2.42;;;16.60;99.90;;;;;;4856731;29;20077;-87
2022/05/27 10:29:56;;;;;;;3.40;1.48;;;16.40;99.90;;;;;;4894362;29;20045;-86
2022/05/27 10:32:36;;;;;;;1.50;1.35;;;16.60;99.90;;;;;;4900199;29;20415;-89
2022/05/27 10:35:18;;;;;;;7.32;2.17;;;16.70;99.90;;;;;;4882561;29;20527;-91
2022/05/27 10:38:23;;;;;;;9.43;1.88;;;16.80;99.90;;;;;;4875361;29;20053;-88
2022/05/27 10:41:22;;;;;;;2.28;1.02;;;16.80;99.90;;;;;;4872311;29;20635;-90
2022/05/27 10:44:21;;;;;;;6.30;1.65;;;16.60;99.90;;;;;;4884867;29;20052;-91
2022/05/27 10:47:10;;;;;;;;;;;;;;;;;;;;;
2022/05/27 10:50:05;;;;;;;4.95;2.28;;;16.10;99.90;;;;;;4885764;29;20052;-91
2022/05/27 10:52:49;;;;;;;3.03;1.50;;;16.20;99.90;;;;;;4883888;29;20048;-89
2022/05/27 10:55:50;;;;;;;3.88;1.58;;;16.00;99.90;;;;;;4865915;29;20089;-90
2022/05/27 11:04:18;;;;;;;3.22;1.65;;;16.10;99.90;;;;;;4883576;29;20461;-89
2022/05/27 11:06:50;;;;;;;;;;;16.10;99.90;;;;;;4882571;29;20041;-90
2022/05/27 11:09:33;;;;;;;5.20;1.60;;;16.10;99.80;;;;;;4890986;29;19923;-87
2022/05/27 11:15:10;;;;;;;5.82;2.03;;;16.30;99.90;;;;;;4863091;29;20056;-87
2022/05/27 11:15:34;;;;;;;2.83;1.90;;;16.30;99.90;;;;;;4887667;29;20045;-90
2022/05/27 11:18:39;;;;;;;5.10;2.13;;;16.30;99.90;;;;;;4901790;29;20089;-84
2022/05/27 11:21:32;;;;;;;2.47;1.48;;;16.40;99.90;;;;;;4872486;29;20416;-84
2022/05/27 11:24:29;;;;;;;3.85;2.00;;;16.30;99.90;;;;;;4872926;29;20044;-85
2022/05/27 11:27:33;;;;;;;4.63;2.47;;;16.60;99.90;;;;;;4881826;29;20104;-88
2022/05/27 11:30:33;;;;;;;5.40;2.63;;;16.80;99.90;;;;;;4858613;29;20412;-87
2022/05/27 11:33:11;;;;;;;2.60;1.45;;;16.90;99.90;;;;;;4887832;29;20076;-87
2022/05/27 11:35:59;;;;;;;3.75;1.50;;;17.00;99.90;;;;;;4882670;29;20064;-88
2022/05/27 11:38:48;;;;;;;4.05;1.42;;;17.30;99.90;;;;;;4884500;29;20049;-86
2022/05/27 11:41:41;;;;;;;2.95;2.13;;;17.20;99.90;;;;;;4886548;29;20081;-91
2022/05/27 11:44:44;;;;;;;3.10;1.67;;;16.90;99.90;;;;;;4880342;29;20048;-84
2022/05/27 11:47:22;;;;;;;5.43;2.50;;;16.80;99.40;;;;;;4864744;29;20514;-86
2022/05/27 11:50:11;;;;;;;1.42;1.33;;;16.70;99.90;;;;;;4880440;29;20060;-83
2022/05/27 11:52:59;;;;;;;4.88;1.80;;;16.50;99.90;;;;;;4895984;29;20080;-83
2022/05/27 11:55:34;;;;;;;4.28;1.80;;;16.50;99.90;;;;;;4878537;29;21863;-83
2022/05/27 11:58:20;;;;;;;2.42;1.90;;;16.70;99.90;;;;;;4896693;29;20076;-82
2022/05/27 12:00:53;;;;;;;4.03;1.48;;;16.70;99.90;;;;;;4882638;29;20060;-83
2022/05/27 12:03:29;;;;;;;4.85;1.58;;;16.60;99.90;;;;;;4896091;29;20107;-84
2022/05/27 12:05:58;;;;;;;8.45;3.03;;;16.40;99.90;;;;;;4877656;29;20087;-86
2022/05/27 12:08:27;;;;;;;2.85;1.52;;;16.40;99.90;;;;;;4894782;29;20059;-85
2022/05/27 12:10:57;;;;;;;4.38;1.58;;;16.50;99.90;;;;;;4858354;29;20068;-84
2022/05/27 12:13:48;;;;;;;2.53;1.45;;;16.40;99.90;;;;;;4878597;29;20502;-85
2022/05/27 12:16:21;;;;;;;6.03;2.47;;;16.40;99.90;;;;;;4895551;29;20083;-84
2022/05/27 12:18:49;;;;;;;4.80;2.03;;;16.30;99.90;;;;;;4866992;29;20108;-84
2022/05/27 12:21:24;;;;;;;4.65;1.60;;;16.50;99.90;;;;;;4861925;29;20049;-86
2022/05/27 12:24:10;;;;;;;4.25;2.08;;;16.60;99.90;;;;;;4896982;29;20122;-84
2022/05/27 12:26:37;;;;;;;4.70;1.75;;;16.70;99.90;;;;;;4880099;29;20108;-84
2022/05/27 12:29:07;;;;;;;3.42;1.92;;;16.80;99.90;;;;;;4897204;29;20049;-84
2022/05/27 12:31:34;;;;;;;1.98;1.42;;;16.90;99.90;;;;;;4895178;29;20049;-85
2022/05/27 12:34:18;;;;;;;;;;;16.90;99.90;;;;;;4867745;29;20064;-84
2022/05/27 12:36:44;;;;;;;4.95;1.92;;;16.80;97.90;;;;;;4870525;29;20014;-84
2022/05/27 12:39:10;;;;;;;5.87;1.70;;;16.80;99.90;;;;;;4879068;29;20077;-84
2022/05/27 12:41:37;;;;;;;3.35;2.00;;;16.90;99.90;;;;;;4896404;29;20126;-85
2022/05/27 12:44:10;;;;;;;3.92;2.35;;;17.00;99.90;;;;;;4895133;29;20048;-84
2022/05/27 12:46:41;;;;;;;1.85;1.70;;;16.90;99.90;;;;;;4878461;29;20056;-84
2022/05/27 12:49:35;;;;;;;3.05;1.60;;;16.70;99.90;;;;;;4895582;29;20044;-84
2022/05/27 12:52:03;;;;;;;5.50;1.80;;;16.60;99.90;;;;;;4893041;29;20556;-86
2022/05/27 12:54:48;;;;;;;2.47;1.60;;;16.50;99.90;;;;;;4895254;29;20053;-83
2022/05/27 13:03:36;;;;;;;3.63;1.70;;;16.30;99.90;;;;;;4894119;29;20082;-84
2022/05/27 13:06:04;;;;;;;4.72;2.25;;;16.40;99.90;;;;;;4855597;29;20049;-84
2022/05/27 13:08:43;;;;;;;3.30;2.30;;;16.20;99.90;;;;;;4894559;29;20091;-84
2022/05/27 13:11:39;;;;;;;4.25;1.73;;;16.30;99.90;;;;;;4892289;29;20415;-83
2022/05/27 13:14:05;;;;;;;12.10;2.47;;;16.40;99.90;;;;;;4878991;29;20495;-82
2022/05/27 13:17:05;;;;;;;2.53;1.83;;;16.40;99.90;;;;;;4877090;29;20056;-83
2022/05/27 13:20:06;;;;;;;4.50;1.90;;;16.50;99.90;;;;;;4867121;29;20317;-87
2022/05/27 13:22:49;;;;;;;3.22;1.88;;;16.40;99.90;;;;;;4854586;29;20061;-83
2022/05/27 13:25:34;;;;;;;9.27;2.42;;;16.30;99.90;;;;;;4890933;29;20096;-83
2022/05/27 13:28:04;;;;;;;2.97;1.58;;;16.40;99.90;;;;;;4883229;29;20041;-82
2022/05/27 13:30:48;;;;;;;4.82;1.83;;;16.40;99.90;;;;;;4895310;29;20587;-82
2022/05/27 13:33:17;;;;;;;3.88;1.45;;;16.50;99.90;;;;;;4895356;29;20048;-81
2022/05/27 13:35:47;;;;;;;2.58;1.52;;;16.50;99.90;;;;;;4895177;29;20495;-83
2022/05/27 13:38:17;;;;;;;4.43;2.17;;;16.40;99.90;;;;;;4895239;29;20048;-82
2022/05/27 13:40:44;;;;;;;8.18;1.80;;;16.40;99.90;;;;;;4895108;29;20427;-81
2022/05/27 13:43:19;;;;;;;3.25;2.03;;;16.40;99.90;;;;;;4862928;29;20453;-82
2022/05/27 13:45:56;;;;;;;6.28;2.55;;;16.40;99.90;;;;;;4893922;29;20403;-82
2022/05/27 13:48:37;;;;;;;3.72;1.80;;;16.30;99.90;;;;;;4857133;29;20056;-84
2022/05/27 13:51:16;;;;;;;3.20;2.88;;;16.30;99.90;;;;;;4894054;29;20056;-82
2022/05/27 13:53:43;;;;;;;6.07;2.22;;;16.20;99.90;;;;;;4868397;29;20064;-82
2022/05/27 13:56:17;;;;;;;4.95;2.38;;;16.10;99.90;;;;;;4877248;29;20381;-84
2022/05/27 13:59:06;;;;;;;4.72;1.67;;;16.10;99.90;;;;;;4880356;29;20059;-83
2022/05/27 14:01:45;;;;;;;6.00;2.67;;;16.10;99.90;;;;;;4891897;29;20088;-86
2022/05/27 14:04:26;;;;;;;4.32;2.10;;;16.20;99.90;;;;;;4862642;29;20485;-86